createdAt,value
2022-08-27T00:03:31.722Z,22.54
2022-08-27T00:08:37.528Z,22.40
2022-08-27T00:13:42.062Z,24.04
2022-08-27T00:18:48.199Z,23.98
2022-08-27T00:23:51.417Z,22.33
2022-08-27T00:28:54.368Z,22.11
2022-08-27T00:33:58.397Z,23.76
2022-08-27T00:39:01.360Z,23.37
2022-08-27T00:44:06.065Z,21.87
2022-08-27T00:49:26.891Z,21.91
2022-08-27T00:54:30.168Z,23.67
2022-08-27T00:59:33.099Z,23.70
2022-08-27T01:04:39.197Z,22.08
2022-08-27T01:09:44.501Z,22.72
2022-08-27T01:14:48.058Z,23.99
2022-08-27T01:19:58.936Z,23.85
2022-08-27T01:25:08.343Z,22.13
2022-08-27T01:30:15.856Z,21.95
2022-08-27T01:35:20.578Z,23.55
2022-08-27T01:40:23.526Z,24.19
2022-08-27T01:45:29.848Z,22.98
2022-08-27T01:50:35.749Z,21.65
2022-08-27T01:55:39.661Z,22.80
2022-08-27T02:00:54.190Z,23.91
2022-08-27T02:06:01.084Z,23.58
2022-08-27T02:11:05.064Z,21.86
2022-08-27T02:16:09.270Z,22.27
2022-08-27T02:21:13.113Z,23.59
2022-08-27T02:26:16.086Z,23.97
2022-08-27T02:31:19.139Z,22.45
2022-08-27T02:36:22.073Z,21.95
2022-08-27T02:41:25.015Z,23.35
2022-08-27T02:46:27.919Z,23.98
2022-08-27T02:51:31.065Z,23.38
2022-08-27T02:56:34.157Z,21.64
2022-08-27T03:01:37.191Z,22.28
2022-08-27T03:06:41.733Z,23.47
2022-08-27T03:11:44.656Z,23.26
2022-08-27T03:16:48.009Z,21.56
2022-08-27T03:21:54.384Z,22.15
2022-08-27T03:27:00.109Z,23.42
2022-08-27T03:32:06.171Z,23.96
2022-08-27T03:37:09.042Z,23.48
2022-08-27T03:42:13.048Z,21.68
2022-08-27T03:47:16.329Z,21.49
2022-08-27T03:52:19.663Z,23.02
2022-08-27T03:57:22.835Z,23.70
2022-08-27T04:02:26.382Z,23.31
2022-08-27T04:07:29.443Z,21.73
2022-08-27T04:12:32.506Z,22.73
2022-08-27T04:17:36.124Z,23.71
2022-08-27T04:22:39.676Z,23.38
2022-08-27T04:27:43.773Z,21.71
2022-08-27T04:32:47.315Z,22.28
2022-08-27T04:37:51.436Z,23.60
2022-08-27T04:42:54.712Z,23.46
2022-08-27T04:47:57.603Z,21.78
2022-08-27T04:53:02.194Z,21.80
2022-08-27T04:58:07.478Z,23.57
2022-08-27T05:03:11.517Z,24.33
2022-08-27T05:08:14.687Z,23.18
2022-08-27T05:13:19.998Z,22.05
2022-08-27T05:18:22.975Z,23.33
2022-08-27T05:23:28.265Z,24.41
2022-08-27T05:28:31.223Z,23.19
2022-08-27T05:33:34.893Z,23.28
2022-08-27T05:38:37.851Z,24.84
2022-08-27T05:43:47.756Z,23.89
2022-08-27T05:48:58.331Z,23.36
2022-08-27T05:54:08.766Z,25.15
2022-08-27T05:59:31.149Z,24.89
2022-08-27T06:04:37.828Z,23.97
2022-08-27T06:09:40.773Z,25.24
2022-08-27T06:14:43.640Z,28.68
2022-08-27T06:19:46.490Z,30.66
2022-08-27T06:24:49.526Z,32.36
2022-08-27T06:29:52.431Z,33.61
2022-08-27T06:34:55.431Z,34.86
2022-08-27T06:39:58.621Z,36.01
2022-08-27T06:45:01.558Z,36.79
2022-08-27T06:50:04.940Z,37.60
2022-08-27T06:55:09.987Z,36.22
2022-08-27T07:00:13.372Z,33.63
2022-08-27T07:05:19.258Z,31.74
2022-08-27T07:10:22.406Z,30.32
2022-08-27T07:15:25.506Z,29.26
2022-08-27T07:20:31.069Z,28.62
2022-08-27T07:25:34.124Z,28.29
2022-08-27T07:30:37.964Z,29.11
2022-08-27T07:35:41.478Z,31.86
2022-08-27T07:40:44.453Z,34.52
2022-08-27T07:45:49.154Z,36.64
2022-08-27T07:50:54.120Z,38.31
2022-08-27T07:56:03.650Z,39.49
2022-08-27T08:01:07.405Z,40.64
2022-08-27T08:06:14.111Z,41.43
2022-08-27T08:11:18.681Z,41.77
2022-08-27T08:16:29.653Z,41.52
2022-08-27T08:21:35.694Z,41.32
2022-08-27T08:26:38.759Z,41.50
2022-08-27T08:31:42.100Z,41.85
2022-08-27T08:36:46.263Z,41.58
2022-08-27T08:42:00.149Z,41.63
2022-08-27T08:47:14.994Z,41.75
2022-08-27T08:52:34.349Z,41.82
2022-08-27T08:57:47.908Z,41.85
2022-08-27T09:02:54.960Z,41.66
2022-08-27T09:08:36.593Z,41.53
2022-08-27T09:13:48.551Z,41.67
2022-08-27T09:18:52.593Z,40.99
2022-08-27T09:24:02.100Z,39.17
2022-08-27T09:29:21.385Z,37.03
2022-08-27T09:34:35.591Z,35.09
2022-08-27T09:39:41.230Z,33.85
2022-08-27T09:44:53.608Z,33.03
2022-08-27T09:50:07.642Z,32.33
2022-08-27T09:55:12.105Z,31.94
2022-08-27T10:00:18.332Z,31.63
2022-08-27T10:05:54.726Z,31.38
2022-08-27T10:11:05.175Z,31.23
2022-08-27T10:16:53.342Z,31.02
2022-08-27T10:22:13.775Z,30.79
2022-08-27T10:27:32.886Z,30.79
2022-08-27T10:32:41.692Z,30.80
2022-08-27T10:37:59.533Z,30.74
2022-08-27T10:43:24.362Z,30.72
2022-08-27T10:48:31.815Z,30.69
2022-08-27T10:53:56.515Z,30.67
2022-08-27T10:59:14.776Z,30.57
2022-08-27T11:04:26.748Z,30.45
2022-08-27T11:09:57.417Z,30.39
2022-08-27T11:15:12.291Z,30.39
2022-08-27T11:20:27.738Z,30.40
2022-08-27T11:26:02.002Z,30.33
2022-08-27T11:31:11.876Z,30.32
2022-08-27T11:36:39.257Z,30.38
2022-08-27T11:41:52.072Z,30.53
2022-08-27T11:46:58.336Z,30.69
2022-08-27T11:52:05.273Z,30.85
2022-08-27T11:57:15.699Z,30.89
2022-08-27T12:02:30.236Z,30.81
2022-08-27T12:07:34.994Z,30.82
2022-08-27T12:13:02.847Z,30.77
2022-08-27T12:18:24.021Z,30.79
2022-08-27T12:23:51.402Z,30.80
2022-08-27T12:28:58.891Z,30.80
2022-08-27T12:34:02.323Z,30.88
2022-08-27T12:39:15.278Z,31.00
2022-08-27T12:44:31.671Z,31.16
2022-08-27T12:49:41.924Z,31.29
2022-08-27T12:54:57.583Z,31.40
2022-08-27T13:00:26.364Z,31.40
2022-08-27T13:05:43.269Z,31.37
2022-08-27T13:10:46.457Z,31.39
2022-08-27T13:15:56.763Z,31.30
2022-08-27T13:21:14.012Z,31.10
2022-08-27T13:26:23.847Z,30.89
2022-08-27T13:31:31.507Z,30.68
2022-08-27T13:36:49.948Z,30.45
2022-08-27T13:41:53.065Z,30.28
2022-08-27T13:47:07.435Z,30.32
2022-08-27T13:52:29.349Z,30.43
2022-08-27T13:57:43.728Z,30.55
2022-08-27T14:02:55.488Z,30.65
2022-08-27T14:08:21.774Z,30.74
2022-08-27T14:13:25.831Z,30.77
2022-08-27T14:24:05.646Z,30.80
2022-08-27T14:29:12.259Z,30.81
2022-08-27T14:34:16.024Z,30.82
2022-08-27T14:39:19.173Z,30.85
2022-08-27T14:44:25.226Z,30.92
2022-08-27T14:49:32.616Z,31.01
2022-08-27T14:54:36.182Z,31.09
2022-08-27T14:59:39.454Z,31.15
2022-08-27T15:04:46.472Z,31.20
2022-08-27T15:09:51.128Z,31.24
2022-08-27T15:14:54.527Z,31.25
2022-08-27T15:19:57.551Z,31.17
2022-08-27T15:25:03.031Z,31.08
2022-08-27T15:30:10.188Z,30.99
2022-08-27T15:35:17.834Z,30.87
2022-08-27T15:40:24.655Z,30.72
2022-08-27T15:45:29.177Z,30.52
2022-08-27T15:50:32.898Z,30.32
2022-08-27T15:55:39.011Z,30.13
2022-08-27T16:00:43.185Z,29.95
2022-08-27T16:05:47.363Z,29.79
2022-08-27T16:10:50.691Z,29.63
2022-08-27T16:15:55.731Z,29.48
2022-08-27T16:21:01.611Z,29.34
2022-08-27T16:26:04.744Z,29.20
2022-08-27T16:31:11.383Z,29.07
2022-08-27T16:36:15.516Z,28.96
2022-08-27T16:41:18.508Z,28.91
2022-08-27T16:46:21.483Z,28.89
2022-08-27T16:51:32.633Z,28.76
2022-08-27T16:56:38.035Z,28.59
2022-08-27T17:01:43.235Z,28.42
2022-08-27T17:06:46.196Z,28.23
2022-08-27T17:11:54.965Z,28.01
2022-08-27T17:16:58.198Z,27.78
2022-08-27T17:22:03.702Z,27.56
2022-08-27T17:27:06.749Z,27.33
2022-08-27T17:32:10.297Z,27.10
2022-08-27T17:37:13.209Z,26.88
2022-08-27T17:42:16.575Z,26.67
2022-08-27T17:47:24.954Z,26.46
2022-08-27T17:52:29.414Z,26.25
2022-08-27T17:57:40.340Z,26.03
2022-08-27T18:02:47.767Z,25.84
2022-08-27T18:07:52.347Z,25.64
2022-08-27T18:12:56.106Z,25.44
2022-08-27T18:18:01.121Z,25.28
2022-08-27T18:23:04.578Z,25.12
2022-08-27T18:28:11.320Z,24.95
2022-08-27T18:33:15.698Z,24.79
2022-08-27T18:38:18.634Z,24.62
2022-08-27T18:43:25.978Z,24.46
2022-08-27T18:48:29.018Z,24.30
2022-08-27T18:53:37.144Z,24.16
2022-08-27T18:58:41.180Z,24.02
2022-08-27T19:03:48.341Z,23.89
2022-08-27T19:08:51.842Z,23.75
2022-08-27T19:13:54.853Z,23.61
2022-08-27T19:18:57.979Z,23.46
2022-08-27T19:24:01.586Z,23.30
2022-08-27T19:29:05.623Z,23.14
2022-08-27T19:34:09.155Z,22.94
2022-08-27T19:39:13.528Z,22.76
2022-08-27T19:44:16.374Z,22.57
2022-08-27T19:49:19.353Z,22.42
2022-08-27T19:54:22.374Z,22.26
2022-08-27T19:59:25.548Z,22.10
2022-08-27T20:04:34.892Z,21.97
2022-08-27T20:09:42.467Z,21.82
2022-08-27T20:14:45.440Z,21.69
2022-08-27T20:19:55.002Z,21.57
2022-08-27T20:24:59.713Z,21.44
2022-08-27T20:30:05.296Z,21.31
2022-08-27T20:35:09.725Z,21.19
2022-08-27T20:40:18.861Z,21.09
2022-08-27T20:45:23.235Z,21.01
2022-08-27T20:50:27.155Z,20.94
2022-08-27T20:55:31.894Z,20.88
2022-08-27T21:00:37.769Z,20.82
2022-08-27T21:05:43.790Z,20.80
2022-08-27T21:10:52.937Z,20.76
2022-08-27T21:15:56.655Z,20.68
2022-08-27T21:21:02.321Z,20.59
2022-08-27T21:26:11.343Z,20.49
2022-08-27T21:31:15.805Z,20.38
2022-08-27T21:36:19.333Z,20.30
2022-08-27T21:41:23.092Z,20.22
2022-08-27T21:46:25.883Z,20.15
2022-08-27T21:51:29.039Z,20.08
2022-08-27T21:56:33.528Z,20.00
2022-08-27T22:01:37.343Z,19.91
2022-08-27T22:06:40.647Z,19.84
2022-08-27T22:11:44.133Z,19.77
2022-08-27T22:16:50.328Z,21.25
2022-08-27T22:21:53.171Z,22.54
2022-08-27T22:26:57.178Z,21.45
2022-08-27T22:32:00.815Z,20.78
2022-08-27T22:37:04.513Z,20.37
2022-08-27T22:42:07.623Z,20.05
2022-08-27T22:47:11.344Z,19.79
2022-08-27T22:52:14.438Z,19.58
2022-08-27T22:57:17.359Z,19.41
2022-08-27T23:02:20.213Z,19.27
2022-08-27T23:07:24.670Z,19.14
2022-08-27T23:12:27.615Z,19.03
2022-08-27T23:17:30.521Z,18.93
2022-08-27T23:22:33.765Z,18.86
2022-08-27T23:27:36.684Z,18.79
2022-08-27T23:32:39.639Z,18.72
2022-08-27T23:37:50.664Z,18.65
2022-08-27T23:42:54.360Z,18.58
2022-08-27T23:47:57.456Z,19.39
2022-08-27T23:53:00.970Z,21.77
2022-08-27T23:58:04.639Z,22.13
